createdAt,value
2023-06-28T00:01:27.155Z,97394.78
2023-06-28T00:03:53.840Z,97397.91
2023-06-28T00:06:23.352Z,97400.28
2023-06-28T00:08:49.933Z,97399.66
2023-06-28T00:11:16.621Z,97395.09
2023-06-28T00:13:43.321Z,97391.28
2023-06-28T00:16:09.964Z,97389.84
2023-06-28T00:18:36.774Z,97390.66
2023-06-28T00:21:03.995Z,97388.81
2023-06-28T00:23:30.939Z,97382.22
2023-06-28T00:25:57.558Z,97381.78
2023-06-28T00:28:24.248Z,97391.16
2023-06-28T00:30:50.893Z,97397.50
2023-06-28T00:33:21.153Z,97393.31
2023-06-28T00:35:49.972Z,97396.75
2023-06-28T00:38:16.715Z,97407.47
2023-06-28T00:40:43.648Z,97408.50
2023-06-28T00:43:10.528Z,97411.78
2023-06-28T00:45:37.176Z,97402.84
2023-06-28T00:48:03.954Z,97406.72
2023-06-28T00:50:31.041Z,97403.31
2023-06-28T00:52:58.110Z,97394.78
2023-06-28T00:55:24.715Z,97399.47
2023-06-28T00:57:51.739Z,97405.03
2023-06-28T01:00:18.711Z,97394.84
2023-06-28T01:02:46.394Z,97400.59
2023-06-28T01:05:14.788Z,97407.66
2023-06-28T01:07:42.211Z,97395.47
2023-06-28T01:10:09.440Z,97405.72
2023-06-28T01:12:36.502Z,97396.75
2023-06-28T01:15:04.817Z,97396.22
2023-06-28T01:17:31.712Z,97407.25
2023-06-28T01:19:58.473Z,97421.94
2023-06-28T01:22:26.494Z,97422.75
2023-06-28T01:24:53.724Z,97428.06
2023-06-28T01:27:20.949Z,97424.84
2023-06-28T01:29:48.546Z,97412.78
2023-06-28T01:32:17.101Z,97423.63
2023-06-28T01:34:43.693Z,97418.97
2023-06-28T01:37:10.590Z,97417.94
2023-06-28T01:39:37.268Z,97425.50
2023-06-28T01:42:04.154Z,97422.66
2023-06-28T01:44:32.378Z,97420.44
2023-06-28T01:46:59.601Z,97420.88
2023-06-28T01:49:26.985Z,97414.78
2023-06-28T01:51:57.160Z,97420.09
2023-06-28T01:54:23.780Z,97420.50
2023-06-28T01:56:50.382Z,97423.97
2023-06-28T01:59:17.015Z,97411.72
2023-06-28T02:01:45.444Z,97418.47
2023-06-28T02:04:12.131Z,97418.25
2023-06-28T02:06:44.676Z,97417.66
2023-06-28T02:09:11.274Z,97411.13
2023-06-28T02:11:37.845Z,97414.59
2023-06-28T02:14:04.463Z,97421.72
2023-06-28T02:16:33.000Z,97418.06
2023-06-28T02:19:01.928Z,97415.41
2023-06-28T02:21:28.504Z,97420.91
2023-06-28T02:23:55.167Z,97414.78
2023-06-28T02:26:21.711Z,97425.84
2023-06-28T02:28:48.277Z,97426.84
2023-06-28T02:31:14.932Z,97417.28
2023-06-28T02:33:41.551Z,97417.25
2023-06-28T02:36:08.107Z,97413.97
2023-06-28T02:38:34.778Z,97420.81
2023-06-28T02:41:01.349Z,97417.09
2023-06-28T02:43:27.919Z,97414.34
2023-06-28T02:45:54.461Z,97417.41
2023-06-28T02:48:21.076Z,97419.16
2023-06-28T02:50:47.676Z,97418.06
2023-06-28T02:53:14.265Z,97415.72
2023-06-28T02:55:40.821Z,97418.06
2023-06-28T02:58:07.485Z,97418.66
2023-06-28T03:00:34.123Z,97420.19
2023-06-28T03:03:05.111Z,97414.00
2023-06-28T03:05:31.938Z,97414.38
2023-06-28T03:07:58.541Z,97422.63
2023-06-28T03:10:25.210Z,97420.91
2023-06-28T03:12:51.767Z,97413.09
2023-06-28T03:15:18.354Z,97420.78
2023-06-28T03:17:45.025Z,97422.84
2023-06-28T03:20:12.656Z,97423.66
2023-06-28T03:22:39.259Z,97421.66
2023-06-28T03:25:06.210Z,97411.47
2023-06-28T03:27:32.774Z,97415.13
2023-06-28T03:29:59.329Z,97419.13
2023-06-28T03:32:25.908Z,97422.41
2023-06-28T03:34:52.491Z,97416.75
2023-06-28T03:37:19.497Z,97423.28
2023-06-28T03:39:46.094Z,97429.84
2023-06-28T03:42:12.708Z,97422.91
2023-06-28T03:44:39.333Z,97410.47
2023-06-28T03:47:06.380Z,97418.25
2023-06-28T03:49:32.976Z,97423.84
2023-06-28T03:51:59.570Z,97424.34
2023-06-28T03:54:26.143Z,97417.66
2023-06-28T03:56:52.735Z,97413.00
2023-06-28T03:59:19.295Z,97414.91
2023-06-28T04:01:48.053Z,97418.63
2023-06-28T04:04:15.486Z,97421.69
2023-06-28T04:06:42.138Z,97422.13
2023-06-28T04:09:09.663Z,97426.44
2023-06-28T04:11:36.318Z,97411.63
2023-06-28T04:14:02.936Z,97417.19
2023-06-28T04:16:29.544Z,97413.44
2023-06-28T04:18:56.161Z,97422.41
2023-06-28T04:21:22.768Z,97413.13
2023-06-28T04:23:49.347Z,97401.78
2023-06-28T04:26:15.975Z,97411.41
2023-06-28T04:28:42.571Z,97415.75
2023-06-28T04:31:09.241Z,97412.09
2023-06-28T04:33:36.455Z,97412.09
2023-06-28T04:36:03.163Z,97411.47
2023-06-28T04:38:33.863Z,97407.41
2023-06-28T04:41:00.790Z,97410.88
2023-06-28T04:43:27.883Z,97407.00
2023-06-28T04:45:57.078Z,97401.03
2023-06-28T04:48:24.030Z,97406.72
2023-06-28T04:50:52.688Z,97411.22
2023-06-28T04:53:19.462Z,97414.63
2023-06-28T04:55:47.926Z,97414.84
2023-06-28T04:58:14.690Z,97409.97
2023-06-28T05:00:41.428Z,97404.78
2023-06-28T05:03:08.823Z,97404.09
2023-06-28T05:05:35.597Z,97404.63
2023-06-28T05:08:04.322Z,97408.56
2023-06-28T05:10:31.004Z,97403.53
2023-06-28T05:12:57.661Z,97405.59
2023-06-28T05:15:25.771Z,97405.59
2023-06-28T05:17:52.641Z,97413.75
2023-06-28T05:20:19.213Z,97412.72
2023-06-28T05:22:51.678Z,97416.13
2023-06-28T05:25:18.336Z,97412.44
2023-06-28T05:27:45.002Z,97418.91
2023-06-28T05:30:11.916Z,97425.03
2023-06-28T05:32:39.256Z,97420.59
2023-06-28T05:35:06.574Z,97420.84
2023-06-28T05:37:33.480Z,97413.34
2023-06-28T05:40:00.143Z,97402.75
2023-06-28T05:42:26.755Z,97405.69
2023-06-28T05:44:53.354Z,97410.38
2023-06-28T05:47:20.860Z,97403.47
2023-06-28T05:49:47.568Z,97405.75
2023-06-28T05:52:14.171Z,97413.13
2023-06-28T05:54:40.741Z,97405.81
2023-06-28T05:57:07.382Z,97404.38
2023-06-28T05:59:34.033Z,97403.75
2023-06-28T06:02:00.882Z,97407.66
2023-06-28T06:04:27.486Z,97399.28
2023-06-28T06:06:54.140Z,97403.19
2023-06-28T06:09:21.097Z,97394.56
2023-06-28T06:11:47.717Z,97393.41
2023-06-28T06:14:14.338Z,97393.09
2023-06-28T06:16:41.018Z,97399.78
2023-06-28T06:19:07.681Z,97393.25
2023-06-28T06:21:34.287Z,97394.22
2023-06-28T06:24:02.512Z,97397.53
2023-06-28T06:26:29.059Z,97397.53
2023-06-28T06:28:55.656Z,97403.94
2023-06-28T06:31:22.413Z,97402.56
2023-06-28T06:33:49.308Z,97399.19
2023-06-28T06:36:16.054Z,97407.81
2023-06-28T06:38:42.696Z,97399.19
2023-06-28T06:41:09.273Z,97400.00
2023-06-28T06:43:35.909Z,97392.25
2023-06-28T06:46:02.675Z,97392.31
2023-06-28T06:48:29.302Z,97395.28
2023-06-28T06:50:55.962Z,97387.41
2023-06-28T06:53:22.572Z,97388.91
2023-06-28T06:55:49.105Z,97392.16
2023-06-28T06:58:15.692Z,97379.25
2023-06-28T07:00:42.596Z,97390.78
2023-06-28T07:03:09.748Z,97391.75
2023-06-28T07:05:36.475Z,97385.56
2023-06-28T07:08:03.135Z,97388.00
2023-06-28T07:10:29.690Z,97374.28
2023-06-28T07:12:56.404Z,97386.16
2023-06-28T07:15:23.141Z,97392.81
2023-06-28T07:17:50.828Z,97397.16
2023-06-28T07:20:17.628Z,97386.03
2023-06-28T07:22:44.222Z,97385.53
2023-06-28T07:25:10.799Z,97392.41
2023-06-28T07:27:37.480Z,97387.94
2023-06-28T07:30:04.874Z,97392.31
2023-06-28T07:32:31.637Z,97385.94
2023-06-28T07:34:58.233Z,97401.22
2023-06-28T07:37:24.963Z,97397.59
2023-06-28T07:39:51.665Z,97395.59
2023-06-28T07:42:19.604Z,97397.41
2023-06-28T07:44:46.390Z,97402.38
2023-06-28T07:47:12.941Z,97395.56
2023-06-28T07:49:39.740Z,97390.78
2023-06-28T07:52:06.864Z,97397.75
2023-06-28T07:54:34.718Z,97389.59
2023-06-28T07:57:02.282Z,97390.03
2023-06-28T07:59:29.204Z,97391.66
2023-06-28T08:01:56.058Z,97395.00
2023-06-28T08:04:23.715Z,97390.72
2023-06-28T08:06:50.565Z,97397.03
2023-06-28T08:09:17.437Z,97396.88
2023-06-28T08:11:44.228Z,97399.53
2023-06-28T08:14:10.843Z,97394.50
2023-06-28T08:16:37.496Z,97406.38
2023-06-28T08:19:04.168Z,97407.97
2023-06-28T08:21:30.872Z,97399.59
2023-06-28T08:23:57.472Z,97408.97
2023-06-28T08:26:24.227Z,97408.88
2023-06-28T08:28:59.942Z,97405.97
2023-06-28T08:31:27.479Z,97400.06
2023-06-28T08:33:54.153Z,97398.00
2023-06-28T08:36:20.744Z,97398.88
2023-06-28T08:38:47.407Z,97394.81
2023-06-28T08:41:16.984Z,97399.38
2023-06-28T08:43:45.099Z,97395.22
2023-06-28T08:46:11.785Z,97390.53
2023-06-28T08:48:38.851Z,97391.44
2023-06-28T08:51:06.469Z,97389.47
2023-06-28T08:53:33.669Z,97389.69
2023-06-28T08:56:02.354Z,97390.81
2023-06-28T08:58:29.637Z,97386.31
2023-06-28T09:00:56.942Z,97389.41
2023-06-28T09:03:24.595Z,97394.78
2023-06-28T09:05:52.779Z,97400.69
2023-06-28T09:08:20.128Z,97398.69
2023-06-28T09:10:47.262Z,97392.47
2023-06-28T09:13:20.581Z,97402.22
2023-06-28T09:15:47.683Z,97396.94
2023-06-28T09:18:14.344Z,97398.53
2023-06-28T09:20:51.819Z,97407.16
2023-06-28T09:23:26.235Z,97401.41
2023-06-28T09:25:53.439Z,97402.78
2023-06-28T09:28:20.628Z,97400.72
2023-06-28T09:30:55.192Z,97399.88
2023-06-28T09:33:22.678Z,97397.22
2023-06-28T09:35:59.657Z,97393.47
2023-06-28T09:38:27.431Z,97391.28
2023-06-28T09:40:58.238Z,97396.94
2023-06-28T09:43:31.589Z,97394.78
2023-06-28T09:45:58.227Z,97394.66
2023-06-28T09:48:27.618Z,97392.00
2023-06-28T09:50:54.294Z,97398.22
2023-06-28T09:53:22.734Z,97392.41
2023-06-28T09:55:50.836Z,97393.22
2023-06-28T09:58:19.295Z,97396.94
2023-06-28T10:00:50.568Z,97401.97
2023-06-28T10:03:19.613Z,97396.63
2023-06-28T10:05:46.989Z,97399.59
2023-06-28T10:08:17.976Z,97401.19
2023-06-28T10:10:46.178Z,97399.88
2023-06-28T10:13:31.190Z,97401.34
2023-06-28T10:16:06.825Z,97395.34
2023-06-28T10:18:33.438Z,97392.84
2023-06-28T10:21:08.554Z,97398.69
2023-06-28T10:23:36.820Z,97387.34
2023-06-28T10:26:04.569Z,97394.75
2023-06-28T10:28:32.925Z,97389.56
2023-06-28T10:30:59.638Z,97389.88
2023-06-28T10:33:26.471Z,97388.75
2023-06-28T10:35:56.738Z,97389.81
2023-06-28T10:38:23.350Z,97386.00
2023-06-28T10:40:49.971Z,97396.56
2023-06-28T10:43:24.360Z,97396.47
2023-06-28T10:45:52.945Z,97391.13
2023-06-28T10:48:21.381Z,97390.81
2023-06-28T10:50:49.741Z,97389.13
2023-06-28T10:53:29.889Z,97389.66
2023-06-28T10:56:13.321Z,97382.25
2023-06-28T10:58:44.287Z,97394.66
2023-06-28T11:01:12.872Z,97401.91
2023-06-28T11:03:40.336Z,97399.44
2023-06-28T11:06:08.525Z,97392.03
2023-06-28T11:08:44.888Z,97395.88
2023-06-28T11:11:23.017Z,97399.84
2023-06-28T11:13:49.886Z,97396.84
2023-06-28T11:16:24.012Z,97391.81
2023-06-28T11:18:51.945Z,97390.53
2023-06-28T11:21:23.254Z,97394.81
2023-06-28T11:23:53.879Z,97391.03
2023-06-28T11:26:33.406Z,97390.72
2023-06-28T11:28:59.991Z,97394.75
2023-06-28T11:31:35.630Z,97382.09
2023-06-28T11:34:02.520Z,97383.94
2023-06-28T11:36:29.325Z,97382.13
2023-06-28T11:38:56.059Z,97384.47
2023-06-28T11:41:22.748Z,97384.97
2023-06-28T11:43:49.788Z,97378.38
2023-06-28T11:46:20.933Z,97368.78
2023-06-28T11:48:51.809Z,97370.97
2023-06-28T11:51:18.332Z,97376.22
2023-06-28T11:53:51.816Z,97360.22
2023-06-28T11:56:18.433Z,97371.34
2023-06-28T11:58:45.040Z,97372.72
2023-06-28T12:01:22.629Z,97372.47
2023-06-28T12:03:49.542Z,97374.06
2023-06-28T12:06:16.460Z,97372.97
2023-06-28T12:08:43.056Z,97371.78
2023-06-28T12:11:17.209Z,97369.69
2023-06-28T12:13:45.325Z,97373.59
2023-06-28T12:16:17.129Z,97363.41
2023-06-28T12:19:00.139Z,97366.97
2023-06-28T12:21:28.568Z,97354.66
2023-06-28T12:24:25.405Z,97361.28
2023-06-28T12:26:55.361Z,97361.47
2023-06-28T12:29:23.368Z,97364.56
2023-06-28T12:31:52.270Z,97364.03
2023-06-28T12:34:26.559Z,97355.72
2023-06-28T12:37:01.705Z,97356.44
2023-06-28T12:39:29.476Z,97350.34
2023-06-28T12:42:09.661Z,97359.03
2023-06-28T12:44:54.635Z,97356.94
2023-06-28T12:47:25.636Z,97362.47
2023-06-28T12:49:52.745Z,97354.81
2023-06-28T12:52:24.201Z,97365.53
2023-06-28T12:54:52.607Z,97362.16
2023-06-28T12:57:24.017Z,97369.63
2023-06-28T12:59:51.951Z,97367.81
2023-06-28T13:02:18.647Z,97370.78
2023-06-28T13:04:45.331Z,97374.56
2023-06-28T13:07:12.204Z,97375.38
2023-06-28T13:09:39.774Z,97374.84
2023-06-28T13:12:10.255Z,97379.69
2023-06-28T13:14:36.878Z,97382.94
2023-06-28T13:17:04.810Z,97386.69
2023-06-28T13:19:32.419Z,97380.22
2023-06-28T13:21:59.070Z,97378.06
2023-06-28T13:24:25.791Z,97384.44
2023-06-28T13:26:53.692Z,97378.19
2023-06-28T13:29:20.323Z,97378.50
2023-06-28T13:31:47.438Z,97377.50
2023-06-28T13:34:17.429Z,97375.63
2023-06-28T13:36:48.207Z,97374.56
2023-06-28T13:39:14.861Z,97377.56
2023-06-28T13:41:42.908Z,97375.94
2023-06-28T13:44:09.544Z,97364.59
2023-06-28T13:46:36.184Z,97373.22
2023-06-28T13:49:04.681Z,97361.91
2023-06-28T13:51:33.224Z,97366.75
2023-06-28T13:54:00.659Z,97371.34
2023-06-28T13:56:27.446Z,97365.41
2023-06-28T13:58:54.028Z,97364.03
2023-06-28T14:01:21.449Z,97359.72
2023-06-28T14:03:48.073Z,97369.41
2023-06-28T14:06:14.733Z,97373.13
2023-06-28T14:08:41.312Z,97369.28
2023-06-28T14:11:07.890Z,97367.59
2023-06-28T14:13:34.462Z,97370.84
2023-06-28T14:16:01.090Z,97362.22
2023-06-28T14:18:27.708Z,97359.03
2023-06-28T14:20:54.276Z,97369.88
2023-06-28T14:23:20.923Z,97360.44
2023-06-28T14:25:47.520Z,97366.13
2023-06-28T14:28:14.749Z,97367.13
2023-06-28T14:30:41.363Z,97362.81
2023-06-28T14:33:08.116Z,97362.88
2023-06-28T14:35:34.708Z,97359.44
2023-06-28T14:38:04.384Z,97358.09
2023-06-28T14:40:31.956Z,97365.03
2023-06-28T14:42:58.569Z,97362.28
2023-06-28T14:45:25.112Z,97351.78
2023-06-28T14:47:51.801Z,97341.03
2023-06-28T14:50:18.485Z,97359.09
2023-06-28T14:52:45.162Z,97354.47
2023-06-28T14:55:11.768Z,97367.38
2023-06-28T14:57:38.451Z,97363.03
2023-06-28T15:00:06.039Z,97359.75
2023-06-28T15:02:32.660Z,97361.59
2023-06-28T15:04:59.235Z,97363.44
2023-06-28T15:07:26.028Z,97357.72
2023-06-28T15:09:52.648Z,97357.97
2023-06-28T15:12:19.254Z,97350.50
2023-06-28T15:14:45.901Z,97351.84
2023-06-28T15:17:12.636Z,97346.25
2023-06-28T15:19:39.279Z,97344.41
2023-06-28T15:22:06.365Z,97336.84
2023-06-28T15:24:32.969Z,97343.91
2023-06-28T15:27:00.089Z,97349.91
2023-06-28T15:29:29.707Z,97343.56
2023-06-28T15:31:57.305Z,97341.47
2023-06-28T15:34:24.428Z,97347.56
2023-06-28T15:36:51.519Z,97345.31
2023-06-28T15:39:18.239Z,97338.59
2023-06-28T15:41:45.627Z,97343.06
2023-06-28T15:44:12.487Z,97336.06
2023-06-28T15:46:39.489Z,97343.38
2023-06-28T15:49:06.366Z,97340.13
2023-06-28T15:51:33.068Z,97345.00
2023-06-28T15:53:59.698Z,97330.91
2023-06-28T15:56:26.383Z,97339.97
2023-06-28T15:58:53.008Z,97329.22
2023-06-28T16:01:20.618Z,97334.41
2023-06-28T16:03:47.529Z,97327.00
2023-06-28T16:06:14.285Z,97322.78
2023-06-28T16:08:40.882Z,97318.94
2023-06-28T16:11:07.460Z,97322.78
2023-06-28T16:13:34.109Z,97327.09
2023-06-28T16:16:04.164Z,97325.38
2023-06-28T16:18:31.010Z,97320.03
2023-06-28T16:20:58.699Z,97324.31
2023-06-28T16:23:25.829Z,97319.84
2023-06-28T16:25:52.445Z,97316.69
2023-06-28T16:28:19.031Z,97314.31
2023-06-28T16:30:45.821Z,97310.03
2023-06-28T16:33:12.537Z,97313.31
2023-06-28T16:35:39.145Z,97310.63
2023-06-28T16:38:05.753Z,97303.91
2023-06-28T16:40:32.339Z,97306.50
2023-06-28T16:42:59.058Z,97302.41
2023-06-28T16:45:25.774Z,97304.78
2023-06-28T16:47:52.392Z,97308.03
2023-06-28T16:50:19.161Z,97303.22
2023-06-28T16:52:45.763Z,97302.06
2023-06-28T16:55:12.395Z,97298.94
2023-06-28T16:57:38.955Z,97297.44
2023-06-28T17:00:06.383Z,97311.06
2023-06-28T17:02:34.355Z,97298.13
2023-06-28T17:05:01.280Z,97293.78
2023-06-28T17:07:28.011Z,97302.44
2023-06-28T17:09:54.692Z,97300.41
2023-06-28T17:12:22.319Z,97304.03
2023-06-28T17:14:48.895Z,97298.69
2023-06-28T17:17:15.503Z,97300.38
2023-06-28T17:19:42.091Z,97301.13
2023-06-28T17:22:08.761Z,97296.44
2023-06-28T17:24:35.432Z,97304.38
2023-06-28T17:27:02.013Z,97299.50
2023-06-28T17:29:28.758Z,97303.34
2023-06-28T17:31:55.396Z,97295.03
2023-06-28T17:34:22.113Z,97309.91
2023-06-28T17:36:48.957Z,97313.03
2023-06-28T17:39:15.828Z,97307.63
2023-06-28T17:41:42.541Z,97310.34
2023-06-28T17:44:09.189Z,97307.41
2023-06-28T17:46:36.484Z,97308.16
2023-06-28T17:49:03.226Z,97313.00
2023-06-28T17:51:29.870Z,97310.03
2023-06-28T17:53:56.435Z,97308.97
2023-06-28T17:56:22.987Z,97316.09
2023-06-28T17:58:49.608Z,97315.72
2023-06-28T18:01:16.218Z,97321.31
2023-06-28T18:03:42.826Z,97322.78
2023-06-28T18:06:09.405Z,97320.50
2023-06-28T18:08:36.477Z,97322.28
2023-06-28T18:11:03.060Z,97321.94
2023-06-28T18:13:29.728Z,97320.59
2023-06-28T18:15:56.349Z,97326.22
2023-06-28T18:18:23.801Z,97331.53
2023-06-28T18:20:50.445Z,97333.22
2023-06-28T18:23:16.990Z,97336.66
2023-06-28T18:25:43.616Z,97325.19
2023-06-28T18:28:10.200Z,97322.94
2023-06-28T18:30:36.771Z,97325.13
2023-06-28T18:33:03.512Z,97331.53
2023-06-28T18:35:34.440Z,97326.00
2023-06-28T18:38:02.191Z,97330.84
2023-06-28T18:40:28.793Z,97331.59
2023-06-28T18:42:55.410Z,97333.13
2023-06-28T18:45:21.990Z,97335.72
2023-06-28T18:47:48.607Z,97327.69
2023-06-28T18:50:15.512Z,97333.72
2023-06-28T18:52:42.072Z,97322.13
2023-06-28T18:55:09.666Z,97323.66
2023-06-28T18:57:36.299Z,97324.63
2023-06-28T19:00:05.142Z,97329.97
2023-06-28T19:02:32.897Z,97320.13
2023-06-28T19:04:59.738Z,97321.34
2023-06-28T19:07:26.469Z,97316.59
2023-06-28T19:09:53.267Z,97322.41
2023-06-28T19:12:20.063Z,97317.91
2023-06-28T19:14:46.716Z,97310.50
2023-06-28T19:17:13.329Z,97320.28
2023-06-28T19:19:39.892Z,97316.59
2023-06-28T19:22:07.939Z,97314.69
2023-06-28T19:24:34.555Z,97313.22
2023-06-28T19:27:01.241Z,97311.59
2023-06-28T19:29:27.819Z,97308.56
2023-06-28T19:31:54.711Z,97311.38
2023-06-28T19:34:21.449Z,97311.59
2023-06-28T19:36:48.066Z,97311.59
2023-06-28T19:39:14.750Z,97317.84
2023-06-28T19:41:41.377Z,97316.94
2023-06-28T19:44:08.067Z,97316.34
2023-06-28T19:46:34.658Z,97323.66
2023-06-28T19:49:01.311Z,97329.63
2023-06-28T19:51:27.889Z,97325.97
2023-06-28T19:53:54.530Z,97331.50
2023-06-28T19:56:22.208Z,97328.16
2023-06-28T19:58:49.033Z,97331.53
2023-06-28T20:01:15.725Z,97323.44
2023-06-28T20:03:42.597Z,97331.06
2023-06-28T20:06:10.167Z,97334.59
2023-06-28T20:08:37.013Z,97342.22
2023-06-28T20:11:03.746Z,97336.13
2023-06-28T20:13:32.204Z,97334.94
2023-06-28T20:15:59.522Z,97333.16
2023-06-28T20:18:26.509Z,97334.28
2023-06-28T20:20:53.830Z,97334.31
2023-06-28T20:23:20.883Z,97335.44
2023-06-28T20:25:48.453Z,97332.06
2023-06-28T20:28:15.313Z,97333.84
2023-06-28T20:30:42.047Z,97335.50
2023-06-28T20:33:10.338Z,97340.31
2023-06-28T20:35:37.326Z,97337.75
2023-06-28T20:38:04.518Z,97339.06
2023-06-28T20:40:31.299Z,97337.84
2023-06-28T20:42:59.972Z,97342.03
2023-06-28T20:45:26.849Z,97340.00
2023-06-28T20:47:53.540Z,97349.44
2023-06-28T20:50:20.250Z,97339.28
2023-06-28T20:52:46.874Z,97347.06
2023-06-28T20:55:13.448Z,97341.34
2023-06-28T20:57:40.064Z,97342.38
2023-06-28T21:00:13.333Z,97340.97
2023-06-28T21:02:39.961Z,97343.47
2023-06-28T21:05:08.941Z,97352.47
2023-06-28T21:07:35.926Z,97349.81
2023-06-28T21:10:02.670Z,97343.47
2023-06-28T21:12:31.221Z,97326.50
2023-06-28T21:14:57.802Z,97337.13
2023-06-28T21:17:24.417Z,97338.16
2023-06-28T21:19:51.000Z,97339.19
2023-06-28T21:22:17.603Z,97338.53
2023-06-28T21:24:44.271Z,97334.09
2023-06-28T21:27:10.841Z,97332.44
2023-06-28T21:29:37.443Z,97331.03
2023-06-28T21:32:04.188Z,97336.56
2023-06-28T21:34:31.004Z,97332.50
2023-06-28T21:36:57.688Z,97335.38
2023-06-28T21:39:24.274Z,97344.75
2023-06-28T21:41:50.848Z,97340.69
2023-06-28T21:44:17.403Z,97330.88
2023-06-28T21:46:44.007Z,97339.88
2023-06-28T21:49:10.544Z,97338.19
2023-06-28T21:51:37.152Z,97344.28
2023-06-28T21:54:03.807Z,97343.84
2023-06-28T21:56:30.459Z,97345.47
2023-06-28T21:58:56.993Z,97330.72
2023-06-28T22:01:23.678Z,97336.63
2023-06-28T22:03:50.716Z,97338.41
2023-06-28T22:06:17.348Z,97337.56
2023-06-28T22:08:43.947Z,97326.09
2023-06-28T22:11:10.555Z,97337.13
2023-06-28T22:13:42.213Z,97343.66
2023-06-28T22:16:14.344Z,97341.16
2023-06-28T22:18:43.686Z,97336.66
2023-06-28T22:21:10.428Z,97330.09
2023-06-28T22:23:37.108Z,97330.75
2023-06-28T22:26:03.702Z,97327.03
2023-06-28T22:28:30.286Z,97324.59
2023-06-28T22:30:57.261Z,97333.03
2023-06-28T22:33:23.902Z,97330.59
2023-06-28T22:35:50.500Z,97331.03
2023-06-28T22:38:17.087Z,97324.50
2023-06-28T22:40:43.647Z,97320.25
2023-06-28T22:43:10.267Z,97326.38
2023-06-28T22:45:36.893Z,97323.72
2023-06-28T22:48:03.810Z,97320.06
2023-06-28T22:50:30.453Z,97326.03
2023-06-28T22:52:57.015Z,97309.91
2023-06-28T22:55:23.638Z,97326.44
2023-06-28T22:57:50.216Z,97320.88
2023-06-28T23:00:17.110Z,97307.84
2023-06-28T23:02:43.727Z,97303.13
2023-06-28T23:05:10.420Z,97308.19
2023-06-28T23:07:37.259Z,97306.34
2023-06-28T23:10:04.107Z,97304.88
2023-06-28T23:12:32.596Z,97311.66
2023-06-28T23:15:01.918Z,97310.19
2023-06-28T23:17:30.941Z,97310.78
2023-06-28T23:19:58.820Z,97298.50
2023-06-28T23:22:29.243Z,97302.78
2023-06-28T23:24:59.101Z,97304.00
2023-06-28T23:27:28.781Z,97298.22
2023-06-28T23:29:58.616Z,97297.78
2023-06-28T23:32:27.582Z,97307.22
2023-06-28T23:34:54.444Z,97299.44
2023-06-28T23:37:21.086Z,97299.44
2023-06-28T23:39:48.558Z,97296.34
2023-06-28T23:42:15.322Z,97292.66
2023-06-28T23:44:42.596Z,97304.34
2023-06-28T23:47:11.153Z,97285.94
2023-06-28T23:49:37.803Z,97281.81
2023-06-28T23:52:04.832Z,97287.94
2023-06-28T23:54:31.944Z,97280.97
2023-06-28T23:57:00.175Z,97285.94
2023-06-28T23:59:26.984Z,97277.31
